Time;durP1;ratioP1;P1;durP2;ratioP2;P2;SDS_P1;SDS_P2;PMS_P1;PMS_P2;Temp;Humidity;BMP_temperature;BMP_pressure;BME280_temperature;BME280_humidity;BME280_pressure;Samples;Min_cycle;Max_cycle;Signal;HPM_P1;HPM_P2
2022/01/02 00:01:35;;;;;;;1.10;1.00;;;22.80;73.80;;;;;;5072905;28;20787;-65
2022/01/02 00:04:03;;;;;;;1.40;1.00;;;22.70;73.80;;;;;;5073194;28;20443;-65
2022/01/02 00:06:33;;;;;;;1.20;1.10;;;22.70;73.70;;;;;;5072792;28;20457;-65
2022/01/02 00:09:07;;;;;;;1.13;1.03;;;22.80;73.70;;;;;;5072899;28;20437;-65
2022/01/02 00:11:37;;;;;;;1.10;1.00;;;22.80;73.80;;;;;;5073057;28;20527;-65
2022/01/02 00:14:07;;;;;;;1.00;0.90;;;22.70;73.70;;;;;;5072767;28;20503;-65
2022/01/02 00:16:36;;;;;;;1.03;0.93;;;22.70;73.60;;;;;;5072657;28;20495;-65
2022/01/02 00:19:07;;;;;;;1.23;1.13;;;22.80;73.70;;;;;;5072876;28;20432;-65
2022/01/02 00:21:40;;;;;;;1.30;1.10;;;22.70;73.70;;;;;;5072791;28;20781;-65
2022/01/02 00:24:14;;;;;;;1.17;1.07;;;22.70;73.70;;;;;;5072836;28;20432;-65
2022/01/02 00:26:43;;;;;;;1.60;1.10;;;22.70;73.70;;;;;;5072747;28;20444;-66
2022/01/02 00:29:11;;;;;;;1.40;1.20;;;22.70;73.70;;;;;;5072648;28;20441;-65
2022/01/02 00:31:40;;;;;;;1.33;1.23;;;22.70;73.70;;;;;;5072630;28;20439;-65
2022/01/02 00:34:08;;;;;;;1.23;1.13;;;22.70;73.70;;;;;;5072507;28;20480;-65
2022/01/02 00:36:35;;;;;;;1.10;1.00;;;22.70;73.60;;;;;;5072537;28;20468;-65
2022/01/02 00:39:02;;;;;;;1.10;1.00;;;22.70;73.50;;;;;;5072503;28;20445;-65
2022/01/02 00:41:35;;;;;;;1.20;1.00;;;22.70;73.60;;;;;;5072519;28;20552;-65
2022/01/02 00:44:09;;;;;;;1.30;1.10;;;22.80;73.70;;;;;;5072524;28;20445;-65
2022/01/02 00:46:47;;;;;;;1.10;1.00;;;22.70;73.60;;;;;;5072537;28;20494;-65
2022/01/02 00:49:24;;;;;;;1.20;1.03;;;22.70;73.70;;;;;;5073140;28;20463;-65
2022/01/02 00:51:56;;;;;;;1.17;1.07;;;22.70;73.60;;;;;;5075927;28;20436;-65
2022/01/02 00:54:27;;;;;;;1.10;0.90;;;22.70;73.50;;;;;;5075978;28;20506;-65
2022/01/02 00:57:03;;;;;;;1.20;1.10;;;22.70;73.70;;;;;;5076123;28;20576;-65
2022/01/02 00:59:38;;;;;;;1.23;1.13;;;22.70;73.60;;;;;;5075879;28;20489;-65
2022/01/02 01:02:09;;;;;;;1.10;0.97;;;22.70;73.60;;;;;;5075883;28;20432;-65
2022/01/02 01:04:41;;;;;;;1.30;1.20;;;22.70;73.60;;;;;;5075753;28;20459;-65
2022/01/02 01:07:08;;;;;;;1.40;1.30;;;22.70;73.70;;;;;;5075766;28;20989;-65
2022/01/02 01:09:35;;;;;;;1.10;0.90;;;22.70;73.60;;;;;;5075533;28;20942;-65
2022/01/02 01:12:04;;;;;;;1.30;1.17;;;22.70;73.50;;;;;;5075589;28;20447;-65
2022/01/02 01:14:32;;;;;;;1.10;0.90;;;22.70;73.60;;;;;;5075727;28;20479;-65
2022/01/02 01:16:59;;;;;;;1.10;0.90;;;22.70;73.50;;;;;;5075376;28;20473;-65
2022/01/02 01:19:26;;;;;;;1.10;0.93;;;22.70;73.50;;;;;;5075538;28;20436;-65
2022/01/02 01:21:53;;;;;;;1.13;1.03;;;22.70;73.50;;;;;;5075420;28;20433;-65
2022/01/02 01:24:20;;;;;;;1.17;1.03;;;22.70;73.70;;;;;;5075444;28;20441;-65
2022/01/02 01:26:50;;;;;;;1.10;0.97;;;22.70;73.50;;;;;;5075335;28;20437;-65
2022/01/02 01:29:18;;;;;;;1.10;0.93;;;22.70;73.60;;;;;;5075311;28;20510;-65
2022/01/02 01:31:46;;;;;;;1.20;1.00;;;22.70;73.40;;;;;;5075198;28;20445;-65
2022/01/02 01:34:13;;;;;;;1.23;1.13;;;22.70;73.50;;;;;;5075145;28;20437;-65
2022/01/02 01:36:40;;;;;;;1.50;1.10;;;22.70;73.50;;;;;;5075186;28;20465;-65
2022/01/02 01:39:07;;;;;;;1.40;1.10;;;22.70;73.50;;;;;;5075060;28;20436;-65
2022/01/02 01:41:38;;;;;;;1.30;1.10;;;22.70;73.50;;;;;;5075041;28;20428;-65
2022/01/02 01:44:20;;;;;;;1.30;1.07;;;22.70;73.50;;;;;;5074936;28;20443;-65
2022/01/02 01:46:51;;;;;;;1.70;1.20;;;22.70;73.40;;;;;;5075031;28;20441;-65
2022/01/02 01:49:20;;;;;;;1.30;0.97;;;22.70;73.50;;;;;;5074866;28;20852;-65
2022/01/02 01:51:49;;;;;;;1.30;1.03;;;22.70;73.30;;;;;;5074747;28;20774;-65
2022/01/02 01:54:15;;;;;;;1.30;1.20;;;22.70;73.40;;;;;;5074841;28;20796;-65
2022/01/02 01:56:43;;;;;;;1.10;1.00;;;22.70;73.40;;;;;;5074856;28;20479;-65
2022/01/02 01:59:10;;;;;;;1.20;1.10;;;22.70;73.40;;;;;;5074679;28;20434;-65
2022/01/02 02:01:36;;;;;;;1.20;1.10;;;22.70;73.40;;;;;;5074397;28;20437;-65
2022/01/02 02:04:04;;;;;;;1.30;1.20;;;22.70;73.40;;;;;;5074658;28;20432;-65
2022/01/02 02:06:33;;;;;;;1.10;0.90;;;22.70;73.40;;;;;;5074491;28;20463;-65
2022/01/02 02:09:02;;;;;;;1.30;1.20;;;22.70;73.40;;;;;;5074505;28;20443;-65
2022/01/02 02:11:29;;;;;;;1.10;1.00;;;22.70;73.40;;;;;;5074478;28;20531;-65
2022/01/02 02:13:57;;;;;;;1.20;1.00;;;22.70;73.40;;;;;;5074464;28;20851;-65
2022/01/02 02:16:24;;;;;;;1.10;1.00;;;22.70;73.40;;;;;;5074108;28;20567;-65
2022/01/02 02:18:51;;;;;;;1.20;0.90;;;22.70;73.30;;;;;;5074330;28;20455;-65
2022/01/02 02:21:29;;;;;;;1.33;1.10;;;22.70;73.30;;;;;;5074625;28;20444;-65
2022/01/02 02:23:55;;;;;;;1.17;1.07;;;22.70;73.20;;;;;;5074276;28;20766;-65
2022/01/02 02:26:22;;;;;;;1.30;1.10;;;22.70;73.40;;;;;;5074297;28;20440;-65
2022/01/02 02:28:49;;;;;;;1.10;0.93;;;22.70;73.40;;;;;;5074003;28;20433;-65
2022/01/02 02:31:16;;;;;;;1.10;0.90;;;22.70;73.40;;;;;;5074092;28;20437;-65
2022/01/02 02:33:43;;;;;;;1.30;0.80;;;22.70;73.30;;;;;;5074022;28;20459;-65
2022/01/02 02:36:09;;;;;;;1.40;1.30;;;22.70;73.40;;;;;;5073763;28;20492;-65
2022/01/02 02:38:39;;;;;;;1.20;1.10;;;22.70;73.40;;;;;;5074228;28;20452;-65
2022/01/02 02:41:06;;;;;;;1.20;1.10;;;22.70;73.40;;;;;;5073950;28;20810;-65
2022/01/02 02:43:39;;;;;;;1.20;1.10;;;22.70;73.20;;;;;;5073805;28;20433;-65
2022/01/02 02:49:03;;;;;;;1.40;1.30;;;22.70;73.30;;;;;;5073871;28;20417;-65
2022/01/02 02:51:39;;;;;;;1.07;0.90;;;22.70;73.30;;;;;;5074035;28;20467;-65
2022/01/02 02:54:08;;;;;;;1.20;1.10;;;22.70;73.40;;;;;;5073738;28;20439;-65
2022/01/02 02:56:43;;;;;;;1.20;0.97;;;22.70;73.40;;;;;;5073572;28;20505;-65
2022/01/02 02:59:11;;;;;;;1.30;1.10;;;22.70;73.30;;;;;;5073587;28;20440;-65
2022/01/02 03:01:38;;;;;;;1.30;1.07;;;22.70;73.30;;;;;;5073571;28;20448;-65
2022/01/02 03:04:05;;;;;;;1.30;1.20;;;22.70;73.30;;;;;;5073603;28;20444;-65
2022/01/02 03:06:32;;;;;;;1.20;1.03;;;22.70;73.30;;;;;;5073439;28;20462;-65
2022/01/02 03:09:06;;;;;;;1.27;1.00;;;22.70;73.30;;;;;;5073937;28;20445;-65
2022/01/02 03:11:35;;;;;;;1.20;1.03;;;22.70;73.30;;;;;;5073041;28;20474;-65
2022/01/02 03:14:02;;;;;;;1.20;0.90;;;22.70;73.40;;;;;;5073206;28;20922;-65
2022/01/02 03:16:28;;;;;;;1.10;0.90;;;22.70;73.40;;;;;;5073243;28;20488;-65
2022/01/02 03:18:56;;;;;;;1.10;1.00;;;22.70;73.30;;;;;;5073365;28;20445;-65
2022/01/02 03:21:23;;;;;;;1.40;1.30;;;22.70;73.30;;;;;;5073394;28;20523;-65
2022/01/02 03:23:50;;;;;;;1.30;1.10;;;22.70;73.30;;;;;;5073304;28;20437;-65
2022/01/02 03:26:17;;;;;;;1.00;0.87;;;22.70;74.10;;;;;;5073356;28;20449;-65
2022/01/02 03:28:46;;;;;;;1.20;1.10;;;22.70;73.30;;;;;;5073447;28;20436;-65
2022/01/02 03:31:13;;;;;;;1.10;1.00;;;22.70;73.30;;;;;;5073208;28;20920;-65
2022/01/02 03:33:40;;;;;;;1.10;1.00;;;22.70;73.30;;;;;;5073145;28;20444;-65
2022/01/02 03:36:07;;;;;;;1.10;0.90;;;22.70;73.40;;;;;;5072976;28;20496;-65
2022/01/02 03:38:34;;;;;;;1.10;1.00;;;22.70;73.40;;;;;;5073106;28;20441;-65
2022/01/02 03:41:01;;;;;;;1.33;1.00;;;22.70;73.40;;;;;;5073178;28;20440;-65
2022/01/02 03:43:28;;;;;;;1.23;0.90;;;22.70;73.30;;;;;;5073125;28;20433;-65
2022/01/02 03:45:56;;;;;;;1.10;0.93;;;22.70;73.30;;;;;;5073136;28;20464;-65
2022/01/02 03:48:23;;;;;;;1.40;1.00;;;22.70;74.20;;;;;;5073059;28;20436;-65
2022/01/02 03:50:49;;;;;;;1.13;1.03;;;22.70;73.30;;;;;;5072578;28;20448;-65
2022/01/02 03:53:16;;;;;;;1.20;1.10;;;22.70;74.30;;;;;;5073111;28;20436;-69
2022/01/02 03:55:43;;;;;;;1.20;1.10;;;22.70;73.60;;;;;;5072877;28;20491;-65
2022/01/02 03:58:10;;;;;;;1.10;0.90;;;22.60;73.30;;;;;;5072990;28;20451;-65
2022/01/02 04:00:37;;;;;;;1.13;1.03;;;22.70;73.40;;;;;;5072925;28;20432;-65
2022/01/02 04:03:05;;;;;;;1.10;1.00;;;22.70;73.50;;;;;;5073186;28;20919;-65
2022/01/02 04:05:32;;;;;;;1.20;1.10;;;22.70;73.40;;;;;;5073138;28;20456;-65
2022/01/02 04:07:59;;;;;;;1.17;1.00;;;22.70;73.50;;;;;;5073072;28;20439;-65
2022/01/02 04:10:26;;;;;;;1.20;1.10;;;22.70;73.40;;;;;;5072764;28;20955;-65
2022/01/02 04:12:52;;;;;;;3.13;1.13;;;22.70;73.40;;;;;;5072846;28;20764;-65
2022/01/02 04:15:19;;;;;;;1.10;1.00;;;22.70;73.40;;;;;;5072782;28;20487;-65
2022/01/02 04:17:46;;;;;;;1.40;1.10;;;22.70;73.50;;;;;;5072502;28;20479;-65
2022/01/02 04:20:15;;;;;;;1.10;0.90;;;22.60;73.50;;;;;;5072688;28;20463;-66
2022/01/02 04:22:43;;;;;;;1.30;1.10;;;22.70;73.60;;;;;;5072969;28;20945;-65
2022/01/02 04:25:11;;;;;;;1.07;0.97;;;22.60;73.40;;;;;;5076329;28;20447;-65
2022/01/02 04:27:38;;;;;;;1.97;1.00;;;22.70;73.60;;;;;;5076409;28;20432;-65
2022/01/02 04:30:07;;;;;;;1.10;1.00;;;22.70;73.60;;;;;;5076215;28;20432;-65
2022/01/02 04:32:34;;;;;;;1.27;1.17;;;22.60;73.50;;;;;;5076556;28;20923;-65
2022/01/02 04:35:00;;;;;;;1.10;1.00;;;22.70;73.70;;;;;;5076148;28;20460;-65
2022/01/02 04:37:29;;;;;;;1.27;1.17;;;22.70;73.70;;;;;;5076251;28;20951;-65
2022/01/02 04:39:56;;;;;;;1.30;1.20;;;22.70;73.70;;;;;;5076157;28;20444;-65
2022/01/02 04:42:23;;;;;;;1.10;1.00;;;22.70;73.60;;;;;;5076447;28;20444;-65
2022/01/02 04:44:49;;;;;;;1.20;1.10;;;22.70;73.70;;;;;;5076302;28;20432;-65
2022/01/02 04:47:16;;;;;;;1.20;1.00;;;22.70;73.80;;;;;;5076303;28;20435;-65
2022/01/02 04:49:43;;;;;;;1.00;0.90;;;22.60;73.80;;;;;;5075899;28;20433;-65
2022/01/02 04:52:09;;;;;;;1.10;0.90;;;22.70;73.80;;;;;;5076027;28;20818;-65
2022/01/02 04:54:38;;;;;;;1.07;0.80;;;22.60;73.60;;;;;;5076002;28;20448;-65
2022/01/02 04:57:05;;;;;;;1.20;1.10;;;22.60;73.70;;;;;;5075975;28;20491;-65
2022/01/02 04:59:31;;;;;;;1.53;1.37;;;22.70;73.80;;;;;;5075821;28;20439;-65
2022/01/02 05:01:58;;;;;;;1.50;1.03;;;22.70;73.80;;;;;;5075839;28;20451;-65
2022/01/02 05:04:25;;;;;;;1.30;1.20;;;22.70;73.70;;;;;;5076021;28;20437;-65
2022/01/02 05:06:52;;;;;;;1.10;0.90;;;22.70;73.70;;;;;;5075854;28;20467;-65
2022/01/02 05:09:18;;;;;;;1.17;1.07;;;22.70;73.90;;;;;;5075798;28;20448;-66
2022/01/02 05:11:46;;;;;;;1.20;1.00;;;22.70;73.90;;;;;;5075782;28;20433;-65
2022/01/02 05:14:13;;;;;;;1.20;0.97;;;22.70;73.90;;;;;;5075603;28;20452;-65
2022/01/02 05:16:40;;;;;;;1.53;1.07;;;22.60;73.80;;;;;;5075309;28;20495;-65
2022/01/02 05:19:07;;;;;;;3.60;0.87;;;22.70;73.90;;;;;;5075588;28;20437;-65
2022/01/02 05:21:33;;;;;;;1.23;1.00;;;22.70;73.90;;;;;;5075792;28;20445;-65
2022/01/02 05:24:00;;;;;;;1.20;1.00;;;22.70;73.80;;;;;;5075460;28;20440;-65
2022/01/02 05:26:27;;;;;;;1.33;1.23;;;22.70;73.90;;;;;;5075428;28;20507;-65
2022/01/02 05:28:55;;;;;;;2.93;1.23;;;22.70;74.00;;;;;;5075207;28;20447;-65
2022/01/02 05:31:22;;;;;;;1.40;0.90;;;22.70;73.90;;;;;;5075262;28;20786;-65
2022/01/02 05:33:48;;;;;;;1.10;1.00;;;22.70;73.90;;;;;;5075276;28;20428;-65
2022/01/02 05:36:15;;;;;;;1.33;1.23;;;22.70;73.90;;;;;;5074673;28;20491;-65
2022/01/02 05:38:42;;;;;;;1.10;0.87;;;22.70;73.90;;;;;;5075139;28;20448;-65
2022/01/02 05:41:09;;;;;;;1.20;1.00;;;22.70;73.90;;;;;;5075463;28;20447;-65
2022/01/02 05:43:35;;;;;;;1.10;0.90;;;22.70;74.00;;;;;;5075113;28;20433;-65
2022/01/02 05:46:05;;;;;;;1.10;0.83;;;22.70;74.00;;;;;;5075052;28;20447;-65
2022/01/02 05:48:33;;;;;;;1.27;1.10;;;22.70;74.00;;;;;;5075247;28;20476;-65
2022/01/02 05:51:00;;;;;;;1.40;1.03;;;22.60;73.80;;;;;;5074853;28;20938;-65
2022/01/02 05:53:28;;;;;;;1.17;1.07;;;22.60;73.90;;;;;;5074867;28;20483;-65
2022/01/02 05:55:55;;;;;;;1.20;1.00;;;22.60;74.00;;;;;;5074830;28;20476;-65
2022/01/02 05:58:22;;;;;;;1.30;1.20;;;22.60;74.00;;;;;;5074795;28;20448;-65
2022/01/02 06:00:49;;;;;;;1.43;1.13;;;22.60;73.80;;;;;;5074929;28;20934;-65
2022/01/02 06:03:17;;;;;;;1.63;1.03;;;22.60;74.00;;;;;;5074726;28;20439;-65
2022/01/02 06:05:44;;;;;;;1.30;1.07;;;22.60;73.90;;;;;;5074597;28;20814;-65
2022/01/02 06:08:10;;;;;;;1.30;1.00;;;22.60;74.00;;;;;;5074633;28;20437;-65
2022/01/02 06:10:37;;;;;;;1.20;1.10;;;22.60;73.90;;;;;;5074404;28;20440;-65
2022/01/02 06:13:04;;;;;;;1.20;1.07;;;22.60;73.90;;;;;;5074525;28;20437;-65
2022/01/02 06:15:31;;;;;;;1.10;1.00;;;22.60;74.00;;;;;;5074235;28;20453;-65
2022/01/02 06:17:58;;;;;;;1.43;1.27;;;22.60;74.10;;;;;;5074500;28;20479;-65
2022/01/02 06:20:26;;;;;;;1.20;1.03;;;22.60;74.10;;;;;;5074316;28;20440;-65
2022/01/02 06:22:54;;;;;;;1.40;1.00;;;22.60;73.90;;;;;;5074299;28;20445;-65
2022/01/02 06:25:21;;;;;;;1.10;0.90;;;22.60;74.00;;;;;;5074273;28;20506;-65
2022/01/02 06:27:48;;;;;;;1.10;0.87;;;22.60;73.90;;;;;;5074174;28;20437;-65
2022/01/02 06:30:15;;;;;;;1.13;1.00;;;22.60;73.90;;;;;;5073980;28;20445;-65
2022/01/02 06:32:41;;;;;;;1.00;0.90;;;22.60;74.10;;;;;;5074332;28;20436;-65
2022/01/02 06:35:08;;;;;;;1.30;1.20;;;22.60;74.00;;;;;;5074029;28;20457;-65
2022/01/02 06:37:37;;;;;;;1.17;1.00;;;22.60;73.90;;;;;;5073962;28;20810;-65
2022/01/02 06:40:04;;;;;;;1.30;1.20;;;22.60;74.10;;;;;;5073880;28;20452;-65
2022/01/02 06:42:31;;;;;;;1.20;1.03;;;22.60;74.00;;;;;;5073965;28;20436;-68
2022/01/02 06:44:58;;;;;;;1.10;1.00;;;22.60;74.00;;;;;;5074082;28;20448;-65
2022/01/02 06:47:25;;;;;;;1.50;1.10;;;22.60;74.10;;;;;;5073068;28;20515;-65
2022/01/02 06:49:51;;;;;;;1.30;1.10;;;22.60;74.20;;;;;;5073586;28;20452;-69
2022/01/02 06:52:18;;;;;;;1.00;0.87;;;22.60;74.00;;;;;;5073703;28;20448;-65
2022/01/02 06:54:46;;;;;;;1.27;1.13;;;22.60;74.20;;;;;;5073760;28;20443;-65
2022/01/02 06:57:13;;;;;;;1.10;0.90;;;22.60;74.00;;;;;;5073582;28;20491;-65
2022/01/02 06:59:41;;;;;;;1.63;1.00;;;22.60;74.20;;;;;;5073660;28;20775;-65
2022/01/02 07:02:08;;;;;;;1.30;1.20;;;22.60;74.20;;;;;;5073695;28;20449;-65
2022/01/02 07:04:35;;;;;;;1.53;1.20;;;22.60;74.10;;;;;;5073437;28;20444;-65
2022/01/02 07:07:02;;;;;;;1.00;0.83;;;22.60;74.10;;;;;;5073473;28;20436;-65
2022/01/02 07:09:31;;;;;;;1.10;0.90;;;22.60;74.10;;;;;;5073398;28;20765;-65
2022/01/02 07:12:00;;;;;;;1.23;1.13;;;22.60;74.10;;;;;;5073622;28;20468;-65
2022/01/02 07:14:27;;;;;;;1.30;1.13;;;22.60;74.10;;;;;;5073516;28;20437;-65
2022/01/02 07:16:55;;;;;;;1.10;0.90;;;22.60;74.10;;;;;;5073284;28;20496;-65
2022/01/02 07:19:22;;;;;;;1.33;1.13;;;22.60;74.10;;;;;;5073205;28;20443;-65
2022/01/02 07:21:49;;;;;;;1.40;1.20;;;22.60;74.10;;;;;;5073287;28;20451;-65
2022/01/02 07:24:16;;;;;;;1.20;1.10;;;22.60;74.30;;;;;;5073343;28;20440;-65
2022/01/02 07:26:43;;;;;;;1.30;1.00;;;22.60;74.10;;;;;;5073226;28;20440;-65
2022/01/02 07:29:11;;;;;;;1.60;1.30;;;22.60;74.20;;;;;;5073290;28;20447;-68
2022/01/02 07:31:38;;;;;;;1.20;1.10;;;22.60;74.20;;;;;;5073442;28;20433;-65
2022/01/02 07:34:05;;;;;;;1.17;1.00;;;22.60;74.30;;;;;;5073233;28;20449;-65
2022/01/02 07:36:32;;;;;;;1.10;0.90;;;22.60;74.10;;;;;;5073013;28;20480;-65
2022/01/02 07:38:59;;;;;;;1.20;1.00;;;22.60;74.10;;;;;;5073187;28;20803;-65
2022/01/02 07:41:25;;;;;;;1.17;1.00;;;22.60;74.10;;;;;;5073175;28;20768;-65
2022/01/02 07:43:53;;;;;;;1.50;1.40;;;22.60;74.20;;;;;;5073175;28;20919;-65
2022/01/02 07:46:21;;;;;;;1.20;1.10;;;22.60;74.10;;;;;;5073091;28;20919;-65
2022/01/02 07:48:48;;;;;;;1.10;0.90;;;22.60;74.10;;;;;;5073140;28;20912;-65
2022/01/02 07:51:15;;;;;;;1.20;1.10;;;22.60;74.20;;;;;;5073114;28;20484;-65
2022/01/02 07:53:42;;;;;;;1.10;1.00;;;22.60;74.20;;;;;;5073088;28;20440;-65
2022/01/02 07:56:08;;;;;;;1.10;1.00;;;22.60;74.10;;;;;;5072948;28;20448;-65
2022/01/02 07:58:35;;;;;;;1.20;1.00;;;22.60;74.00;;;;;;5074231;28;20437;-65
2022/01/02 08:01:02;;;;;;;1.20;1.00;;;22.60;74.10;;;;;;5077153;28;20432;-65
2022/01/02 08:03:30;;;;;;;1.30;1.20;;;22.60;74.10;;;;;;5077031;28;20966;-65
2022/01/02 08:05:57;;;;;;;1.10;1.00;;;22.60;74.00;;;;;;5076870;28;20967;-65
2022/01/02 08:08:23;;;;;;;1.20;1.00;;;22.60;74.10;;;;;;5076751;28;20796;-65
2022/01/02 08:10:50;;;;;;;1.10;1.00;;;22.60;74.10;;;;;;5076753;28;20791;-65
2022/01/02 08:13:17;;;;;;;1.40;1.30;;;22.60;74.00;;;;;;5076842;28;20760;-65
2022/01/02 08:15:44;;;;;;;1.13;1.03;;;22.60;74.20;;;;;;5077001;28;20429;-67
2022/01/02 08:18:13;;;;;;;1.20;1.00;;;22.60;74.20;;;;;;5076384;28;20499;-65
2022/01/02 08:20:41;;;;;;;1.20;0.93;;;22.60;74.20;;;;;;5076635;28;20919;-65
2022/01/02 08:23:08;;;;;;;1.30;1.00;;;22.60;74.10;;;;;;5076596;28;20445;-65
2022/01/02 08:25:35;;;;;;;1.20;0.97;;;22.60;74.20;;;;;;5076547;28;20437;-65
2022/01/02 08:28:02;;;;;;;1.30;1.13;;;22.60;74.20;;;;;;5076441;28;20436;-65
2022/01/02 08:30:28;;;;;;;1.23;1.07;;;22.60;74.10;;;;;;5076345;28;20432;-65
2022/01/02 08:32:55;;;;;;;1.20;1.10;;;22.60;74.10;;;;;;5076337;28;20444;-65
2022/01/02 08:35:22;;;;;;;1.10;1.00;;;22.60;74.00;;;;;;5076296;28;20456;-65
2022/01/02 08:37:50;;;;;;;1.20;1.10;;;22.60;74.10;;;;;;5076223;28;20491;-65
2022/01/02 08:40:17;;;;;;;1.27;1.10;;;22.60;74.10;;;;;;5076302;28;20444;-65
2022/01/02 08:42:44;;;;;;;1.10;1.00;;;22.60;73.90;;;;;;5076244;28;20440;-66
2022/01/02 08:45:10;;;;;;;1.30;1.20;;;22.60;74.00;;;;;;5076228;28;20768;-65
2022/01/02 08:47:37;;;;;;;1.63;1.33;;;22.60;74.00;;;;;;5076200;28;20440;-65
2022/01/02 08:50:05;;;;;;;1.10;0.90;;;22.60;73.90;;;;;;5075894;28;20432;-67
2022/01/02 08:52:32;;;;;;;1.23;1.10;;;22.60;74.00;;;;;;5076106;28;20440;-65
2022/01/02 08:55:00;;;;;;;1.10;1.00;;;22.60;74.00;;;;;;5076077;28;20433;-65
2022/01/02 08:57:27;;;;;;;1.50;1.30;;;22.60;73.90;;;;;;5076112;28;20487;-65
2022/01/02 08:59:54;;;;;;;1.40;1.30;;;22.60;73.90;;;;;;5075867;28;20444;-65
2022/01/02 09:02:20;;;;;;;1.20;1.00;;;22.60;73.90;;;;;;5075910;28;20445;-65
2022/01/02 09:04:47;;;;;;;1.10;0.90;;;22.60;73.90;;;;;;5075804;28;20439;-65
2022/01/02 09:07:14;;;;;;;1.20;1.00;;;22.60;73.90;;;;;;5075885;28;20440;-70
2022/01/02 09:09:41;;;;;;;1.10;1.00;;;22.60;73.90;;;;;;5074754;28;20433;-65
2022/01/02 09:12:12;;;;;;;1.10;0.90;;;22.60;73.90;;;;;;5075445;28;20433;-66
2022/01/02 09:14:39;;;;;;;1.10;0.97;;;22.60;73.90;;;;;;5075713;28;20433;-65
2022/01/02 09:17:05;;;;;;;1.30;1.20;;;22.60;73.80;;;;;;5075670;28;20499;-65
2022/01/02 09:19:32;;;;;;;1.10;0.80;;;22.60;73.90;;;;;;5075586;28;20440;-65
2022/01/02 09:21:59;;;;;;;1.13;0.97;;;22.60;73.80;;;;;;5075629;28;20433;-65
2022/01/02 09:24:26;;;;;;;1.10;1.00;;;22.60;73.90;;;;;;5075525;28;20464;-65
2022/01/02 09:26:53;;;;;;;1.20;0.87;;;22.60;73.80;;;;;;5075436;28;20436;-65
2022/01/02 09:29:21;;;;;;;1.30;1.20;;;22.60;73.80;;;;;;5075376;28;20436;-65
2022/01/02 09:31:47;;;;;;;1.17;1.03;;;22.60;73.90;;;;;;5075302;28;20429;-65
2022/01/02 09:34:14;;;;;;;1.40;1.30;;;22.60;73.90;;;;;;5075310;28;20499;-65
2022/01/02 09:36:41;;;;;;;1.23;1.13;;;22.60;73.80;;;;;;5075142;28;20996;-65
2022/01/02 09:39:08;;;;;;;1.20;1.10;;;22.60;73.80;;;;;;5075182;28;20802;-65
2022/01/02 09:41:34;;;;;;;1.50;1.10;;;22.60;73.80;;;;;;5075255;28;20786;-65
2022/01/02 09:44:02;;;;;;;1.10;1.00;;;22.60;73.70;;;;;;5075422;28;20441;-65
2022/01/02 09:46:30;;;;;;;1.30;1.20;;;22.60;73.70;;;;;;5075157;28;20514;-65
2022/01/02 09:48:57;;;;;;;1.10;1.00;;;22.60;73.80;;;;;;5075163;28;20445;-65
2022/01/02 09:51:26;;;;;;;1.23;1.10;;;22.60;73.70;;;;;;5074863;28;20793;-65
2022/01/02 09:53:53;;;;;;;1.10;0.97;;;22.60;73.70;;;;;;5074941;28;20813;-65
2022/01/02 09:56:21;;;;;;;1.50;1.40;;;22.60;73.70;;;;;;5074925;28;20443;-65
2022/01/02 09:58:48;;;;;;;1.43;1.10;;;22.60;73.70;;;;;;5074774;28;20834;-65
2022/01/02 10:01:16;;;;;;;1.23;1.13;;;22.60;73.60;;;;;;5074753;28;20441;-65
2022/01/02 10:03:46;;;;;;;1.10;0.80;;;22.60;73.60;;;;;;5074799;28;20486;-65
2022/01/02 10:06:13;;;;;;;1.13;1.00;;;22.60;73.50;;;;;;5074488;28;20457;-65
2022/01/02 10:08:41;;;;;;;1.20;1.00;;;22.60;73.70;;;;;;5074655;28;20429;-69
2022/01/02 10:11:15;;;;;;;1.60;1.10;;;22.60;73.60;;;;;;5074534;28;20797;-66
2022/01/02 10:13:45;;;;;;;1.00;0.90;;;22.60;73.50;;;;;;5074463;28;20460;-65
2022/01/02 10:16:24;;;;;;;1.30;1.10;;;22.60;73.50;;;;;;5074425;28;20463;-65
2022/01/02 10:18:53;;;;;;;1.23;1.00;;;22.60;73.40;;;;;;5074394;28;20494;-65
2022/01/02 10:21:31;;;;;;;1.10;0.90;;;22.60;73.60;;;;;;5074261;28;20942;-65
2022/01/02 10:24:15;;;;;;;1.23;0.90;;;22.60;73.40;;;;;;5074440;28;20437;-65
2022/01/02 10:26:43;;;;;;;1.20;1.10;;;22.60;73.40;;;;;;5074244;28;20463;-65
2022/01/02 10:29:12;;;;;;;1.10;0.97;;;22.60;73.50;;;;;;5074185;28;20535;-68
2022/01/02 10:31:39;;;;;;;1.30;1.20;;;22.60;73.50;;;;;;5074326;28;20452;-65
2022/01/02 10:34:08;;;;;;;1.20;1.10;;;22.60;73.40;;;;;;5074176;28;20437;-65
2022/01/02 10:36:38;;;;;;;1.20;1.10;;;22.60;73.40;;;;;;5073988;28;20514;-65
2022/01/02 10:39:09;;;;;;;1.00;0.90;;;22.60;73.40;;;;;;5073964;28;20491;-65
2022/01/02 10:41:38;;;;;;;1.30;1.00;;;22.60;73.40;;;;;;5073997;28;20448;-65
2022/01/02 10:44:22;;;;;;;1.50;1.30;;;22.60;73.30;;;;;;5073919;28;20920;-65
2022/01/02 10:47:11;;;;;;;2.20;1.30;;;22.60;73.30;;;;;;5073928;28;20437;-66
2022/01/02 10:49:54;;;;;;;1.10;0.90;;;22.60;73.20;;;;;;5073724;28;20472;-65
2022/01/02 10:52:23;;;;;;;1.20;0.93;;;22.60;73.30;;;;;;5073829;28;20433;-70
2022/01/02 10:54:50;;;;;;;1.37;1.27;;;22.60;73.30;;;;;;5073762;28;20437;-65
2022/01/02 10:57:17;;;;;;;1.80;1.10;;;22.60;73.30;;;;;;5073552;28;20484;-69
2022/01/02 10:59:45;;;;;;;1.20;1.10;;;22.60;73.30;;;;;;5073600;28;20441;-65
2022/01/02 11:02:13;;;;;;;1.20;1.07;;;22.60;73.30;;;;;;5073672;28;20788;-65
2022/01/02 11:04:47;;;;;;;1.30;1.10;;;22.60;73.20;;;;;;5073508;28;20794;-65
2022/01/02 11:07:21;;;;;;;1.20;1.10;;;22.60;73.20;;;;;;5073559;28;20428;-65
2022/01/02 11:09:49;;;;;;;1.10;0.93;;;22.60;73.10;;;;;;5073399;28;20437;-70
2022/01/02 11:12:16;;;;;;;1.23;1.13;;;22.60;73.20;;;;;;5073491;28;20460;-65
2022/01/02 11:14:43;;;;;;;1.70;1.13;;;22.60;73.20;;;;;;5073511;28;20494;-65
2022/01/02 11:17:11;;;;;;;1.33;1.10;;;22.60;73.20;;;;;;5073112;28;20487;-65
2022/01/02 11:19:37;;;;;;;1.17;1.07;;;22.60;73.20;;;;;;5073372;28;20441;-66
2022/01/02 11:22:06;;;;;;;1.30;1.07;;;22.60;73.20;;;;;;5073350;28;20439;-65
2022/01/02 11:24:45;;;;;;;1.33;1.20;;;22.60;74.00;;;;;;5073568;28;20444;-65
2022/01/02 11:27:20;;;;;;;1.13;1.00;;;22.60;73.10;;;;;;5073364;28;20452;-65
2022/01/02 11:29:47;;;;;;;1.33;1.23;;;22.60;73.20;;;;;;5073235;28;20958;-65
2022/01/02 11:32:25;;;;;;;1.20;1.00;;;22.60;73.20;;;;;;5073290;28;20449;-65
2022/01/02 11:34:52;;;;;;;1.30;1.20;;;22.60;73.10;;;;;;5072785;28;20464;-65
2022/01/02 11:37:22;;;;;;;1.27;1.13;;;22.60;73.20;;;;;;5073109;28;20444;-69
2022/01/02 11:39:59;;;;;;;1.30;1.20;;;22.60;73.30;;;;;;5073058;28;20440;-65
2022/01/02 11:42:48;;;;;;;1.37;1.27;;;22.60;73.20;;;;;;5073203;28;20464;-65
2022/01/02 11:45:40;;;;;;;1.30;1.07;;;22.60;73.20;;;;;;5073364;28;21806;-65
2022/01/02 11:48:26;;;;;;;1.23;1.03;;;22.60;73.30;;;;;;5073094;28;20440;-65
2022/01/02 11:50:53;;;;;;;1.13;1.03;;;22.60;73.30;;;;;;5073201;28;20494;-66
2022/01/02 11:53:23;;;;;;;1.30;1.10;;;22.60;73.30;;;;;;5073077;28;20939;-65
2022/01/02 11:55:53;;;;;;;1.47;1.30;;;22.60;73.30;;;;;;5073144;28;20436;-65
2022/01/02 11:58:49;;;;;;;1.40;1.13;;;22.60;73.30;;;;;;5072878;28;20978;-65
2022/01/02 12:01:47;;;;;;;1.47;1.20;;;22.60;73.10;;;;;;5073014;28;20524;-65
2022/01/02 12:04:14;;;;;;;1.50;1.30;;;22.60;73.30;;;;;;5072996;28;20456;-65
2022/01/02 12:06:42;;;;;;;1.27;1.17;;;22.60;73.40;;;;;;5073091;28;20472;-65
2022/01/02 12:09:33;;;;;;;1.20;1.10;;;22.60;73.30;;;;;;5073018;28;20449;-65
2022/01/02 12:12:03;;;;;;;1.23;1.00;;;22.60;73.10;;;;;;5072872;28;20448;-66
2022/01/02 12:14:30;;;;;;;1.40;1.10;;;22.60;73.30;;;;;;5073082;28;20444;-67
2022/01/02 12:17:08;;;;;;;1.43;1.30;;;22.60;73.20;;;;;;5072860;28;20469;-66
2022/01/02 12:19:58;;;;;;;1.47;1.10;;;22.60;73.30;;;;;;5072885;28;20485;-66
2022/01/02 12:22:40;;;;;;;1.47;1.20;;;22.60;73.20;;;;;;5072848;28;20444;-66
2022/01/02 12:25:15;;;;;;;1.10;1.00;;;22.60;73.20;;;;;;5073055;28;20433;-65
2022/01/02 12:27:50;;;;;;;1.37;1.27;;;22.60;73.20;;;;;;5072681;28;20443;-65
2022/01/02 12:30:17;;;;;;;1.30;1.20;;;22.60;73.20;;;;;;5072785;28;20436;-65
2022/01/02 12:32:46;;;;;;;1.53;1.13;;;22.60;73.20;;;;;;5072615;28;20479;-65
2022/01/02 12:35:13;;;;;;;1.30;1.20;;;22.60;73.20;;;;;;5072625;28;20499;-65
2022/01/02 12:37:40;;;;;;;1.67;1.40;;;22.60;73.10;;;;;;5072626;28;20787;-65
2022/01/02 12:40:14;;;;;;;1.17;1.07;;;22.60;73.10;;;;;;5072602;28;20803;-65
2022/01/02 12:42:41;;;;;;;2.03;1.20;;;22.60;73.10;;;;;;5072707;28;20437;-65
2022/01/02 12:45:10;;;;;;;1.47;1.37;;;22.60;73.10;;;;;;5074761;28;20498;-65
2022/01/02 12:47:47;;;;;;;1.70;1.60;;;22.60;73.10;;;;;;5076466;28;20437;-65
2022/01/02 12:50:23;;;;;;;1.23;1.13;;;22.60;73.00;;;;;;5076055;28;20938;-65
2022/01/02 12:52:52;;;;;;;1.27;1.10;;;22.70;73.10;;;;;;5076111;28;20432;-65
2022/01/02 12:55:19;;;;;;;1.20;1.10;;;22.60;73.00;;;;;;5076014;28;20432;-65
2022/01/02 12:57:46;;;;;;;1.40;1.30;;;22.60;73.00;;;;;;5075913;28;20452;-65
2022/01/02 13:00:15;;;;;;;1.40;1.30;;;22.60;73.00;;;;;;5075985;28;20911;-65